sensor_id;sensor_type;location;lat;lon;timestamp;P1;durP1;ratioP1;P2;durP2;ratioP2
24801;SDS011;12898;50.520;12.152;2023-01-28T00:02:19;40.90;;;19.77;;
24801;SDS011;12898;50.520;12.152;2023-01-28T00:04:45;38.37;;;19.83;;
24801;SDS011;12898;50.520;12.152;2023-01-28T00:07:11;42.97;;;20.73;;
24801;SDS011;12898;50.520;12.152;2023-01-28T00:09:36;43.43;;;19.50;;
24801;SDS011;12898;50.520;12.152;2023-01-28T00:12:03;38.77;;;20.37;;
24801;SDS011;12898;50.520;12.152;2023-01-28T00:14:30;45.03;;;21.13;;
24801;SDS011;12898;50.520;12.152;2023-01-28T00:16:55;42.07;;;21.00;;
24801;SDS011;12898;50.520;12.152;2023-01-28T00:19:21;38.10;;;19.10;;
24801;SDS011;12898;50.520;12.152;2023-01-28T00:21:47;40.10;;;19.83;;
24801;SDS011;12898;50.520;12.152;2023-01-28T00:24:13;40.57;;;20.27;;
24801;SDS011;12898;50.520;12.152;2023-01-28T00:26:39;39.97;;;19.67;;
24801;SDS011;12898;50.520;12.152;2023-01-28T00:29:05;38.60;;;19.13;;
24801;SDS011;12898;50.520;12.152;2023-01-28T00:31:31;42.93;;;19.60;;
24801;SDS011;12898;50.520;12.152;2023-01-28T00:33:58;38.33;;;18.63;;
24801;SDS011;12898;50.520;12.152;2023-01-28T00:36:24;37.13;;;18.73;;
24801;SDS011;12898;50.520;12.152;2023-01-28T00:38:52;37.60;;;18.87;;
24801;SDS011;12898;50.520;12.152;2023-01-28T00:41:24;40.20;;;18.87;;
24801;SDS011;12898;50.520;12.152;2023-01-28T00:43:52;38.00;;;19.27;;
24801;SDS011;12898;50.520;12.152;2023-01-28T00:46:19;39.07;;;19.63;;
24801;SDS011;12898;50.520;12.152;2023-01-28T00:48:47;36.23;;;18.07;;
24801;SDS011;12898;50.520;12.152;2023-01-28T00:51:14;33.17;;;17.70;;
24801;SDS011;12898;50.520;12.152;2023-01-28T00:53:41;38.27;;;19.23;;
24801;SDS011;12898;50.520;12.152;2023-01-28T00:56:08;35.03;;;17.53;;
24801;SDS011;12898;50.520;12.152;2023-01-28T00:58:38;39.30;;;19.50;;
24801;SDS011;12898;50.520;12.152;2023-01-28T01:01:11;34.17;;;18.20;;
24801;SDS011;12898;50.520;12.152;2023-01-28T01:03:40;35.43;;;17.60;;
24801;SDS011;12898;50.520;12.152;2023-01-28T01:06:07;34.90;;;16.97;;
24801;SDS011;12898;50.520;12.152;2023-01-28T01:08:34;32.57;;;17.07;;
24801;SDS011;12898;50.520;12.152;2023-01-28T01:11:03;34.10;;;17.83;;
24801;SDS011;12898;50.520;12.152;2023-01-28T01:13:31;31.43;;;16.47;;
24801;SDS011;12898;50.520;12.152;2023-01-28T01:16:02;31.50;;;16.30;;
24801;SDS011;12898;50.520;12.152;2023-01-28T01:18:36;29.67;;;14.90;;
24801;SDS011;12898;50.520;12.152;2023-01-28T01:21:10;28.27;;;14.87;;
24801;SDS011;12898;50.520;12.152;2023-01-28T01:23:41;28.47;;;14.47;;
24801;SDS011;12898;50.520;12.152;2023-01-28T01:26:08;29.30;;;15.40;;
24801;SDS011;12898;50.520;12.152;2023-01-28T01:28:34;30.63;;;14.67;;
24801;SDS011;12898;50.520;12.152;2023-01-28T01:31:01;31.30;;;14.80;;
24801;SDS011;12898;50.520;12.152;2023-01-28T01:33:36;29.87;;;14.73;;
24801;SDS011;12898;50.520;12.152;2023-01-28T01:36:03;25.83;;;13.53;;
24801;SDS011;12898;50.520;12.152;2023-01-28T01:38:30;28.60;;;14.67;;
24801;SDS011;12898;50.520;12.152;2023-01-28T01:40:59;26.43;;;15.33;;
24801;SDS011;12898;50.520;12.152;2023-01-28T01:43:43;27.43;;;14.27;;
24801;SDS011;12898;50.520;12.152;2023-01-28T01:46:26;29.23;;;14.23;;
24801;SDS011;12898;50.520;12.152;2023-01-28T01:49:02;26.20;;;13.97;;
24801;SDS011;12898;50.520;12.152;2023-01-28T01:51:49;27.73;;;14.40;;
24801;SDS011;12898;50.520;12.152;2023-01-28T01:54:35;26.40;;;14.17;;
24801;SDS011;12898;50.520;12.152;2023-01-28T01:57:02;22.63;;;11.83;;
24801;SDS011;12898;50.520;12.152;2023-01-28T01:59:32;22.87;;;12.07;;
24801;SDS011;12898;50.520;12.152;2023-01-28T02:02:00;24.07;;;12.00;;
24801;SDS011;12898;50.520;12.152;2023-01-28T02:04:28;22.13;;;11.97;;
24801;SDS011;12898;50.520;12.152;2023-01-28T02:06:59;21.63;;;11.77;;
24801;SDS011;12898;50.520;12.152;2023-01-28T02:09:27;22.63;;;11.17;;
24801;SDS011;12898;50.520;12.152;2023-01-28T02:11:56;18.20;;;10.13;;
24801;SDS011;12898;50.520;12.152;2023-01-28T02:14:47;16.47;;;8.47;;
24801;SDS011;12898;50.520;12.152;2023-01-28T02:17:25;15.77;;;8.20;;
24801;SDS011;12898;50.520;12.152;2023-01-28T02:19:53;14.33;;;7.93;;
24801;SDS011;12898;50.520;12.152;2023-01-28T02:25:44;13.27;;;7.10;;
24801;SDS011;12898;50.520;12.152;2023-01-28T02:28:59;13.90;;;6.90;;
24801;SDS011;12898;50.520;12.152;2023-01-28T02:31:53;13.33;;;6.40;;
24801;SDS011;12898;50.520;12.152;2023-01-28T02:34:43;12.37;;;6.17;;
24801;SDS011;12898;50.520;12.152;2023-01-28T02:37:24;12.43;;;6.27;;
24801;SDS011;12898;50.520;12.152;2023-01-28T02:40:10;12.80;;;6.80;;
24801;SDS011;12898;50.520;12.152;2023-01-28T02:42:40;14.23;;;7.23;;
24801;SDS011;12898;50.520;12.152;2023-01-28T02:45:17;13.60;;;7.37;;
24801;SDS011;12898;50.520;12.152;2023-01-28T02:47:46;12.83;;;6.83;;
24801;SDS011;12898;50.520;12.152;2023-01-28T02:50:21;13.40;;;6.67;;
24801;SDS011;12898;50.520;12.152;2023-01-28T03:01:35;10.70;;;5.03;;
24801;SDS011;12898;50.520;12.152;2023-01-28T03:04:08;12.57;;;6.07;;
24801;SDS011;12898;50.520;12.152;2023-01-28T03:06:48;11.73;;;6.40;;
24801;SDS011;12898;50.520;12.152;2023-01-28T03:09:18;12.93;;;6.60;;
24801;SDS011;12898;50.520;12.152;2023-01-28T03:11:47;13.97;;;6.63;;
24801;SDS011;12898;50.520;12.152;2023-01-28T03:14:50;12.20;;;6.27;;
24801;SDS011;12898;50.520;12.152;2023-01-28T03:17:44;14.47;;;6.87;;
24801;SDS011;12898;50.520;12.152;2023-01-28T03:27:27;15.53;;;7.90;;
24801;SDS011;12898;50.520;12.152;2023-01-28T03:30:22;15.37;;;8.50;;
24801;SDS011;12898;50.520;12.152;2023-01-28T03:33:11;15.07;;;8.00;;
24801;SDS011;12898;50.520;12.152;2023-01-28T03:35:56;17.23;;;9.43;;
24801;SDS011;12898;50.520;12.152;2023-01-28T03:38:41;16.40;;;8.57;;
24801;SDS011;12898;50.520;12.152;2023-01-28T03:41:12;16.23;;;9.07;;
24801;SDS011;12898;50.520;12.152;2023-01-28T03:43:49;21.37;;;9.27;;
24801;SDS011;12898;50.520;12.152;2023-01-28T03:46:15;16.13;;;8.07;;
24801;SDS011;12898;50.520;12.152;2023-01-28T03:48:42;17.47;;;9.30;;
24801;SDS011;12898;50.520;12.152;2023-01-28T03:51:08;18.27;;;9.77;;
24801;SDS011;12898;50.520;12.152;2023-01-28T03:53:34;15.73;;;8.80;;
24801;SDS011;12898;50.520;12.152;2023-01-28T03:56:00;17.33;;;8.70;;
24801;SDS011;12898;50.520;12.152;2023-01-28T03:58:26;17.57;;;8.90;;
24801;SDS011;12898;50.520;12.152;2023-01-28T04:01:10;15.60;;;8.13;;
24801;SDS011;12898;50.520;12.152;2023-01-28T04:03:37;17.57;;;8.17;;
24801;SDS011;12898;50.520;12.152;2023-01-28T04:06:04;15.57;;;7.20;;
24801;SDS011;12898;50.520;12.152;2023-01-28T04:08:32;12.73;;;7.00;;
24801;SDS011;12898;50.520;12.152;2023-01-28T04:10:58;15.43;;;7.80;;
24801;SDS011;12898;50.520;12.152;2023-01-28T04:13:39;13.57;;;7.07;;
24801;SDS011;12898;50.520;12.152;2023-01-28T04:16:08;13.97;;;7.47;;
24801;SDS011;12898;50.520;12.152;2023-01-28T04:18:38;13.97;;;6.90;;
24801;SDS011;12898;50.520;12.152;2023-01-28T04:21:04;13.07;;;7.20;;
24801;SDS011;12898;50.520;12.152;2023-01-28T04:23:29;14.13;;;7.43;;
24801;SDS011;12898;50.520;12.152;2023-01-28T04:25:55;15.97;;;8.03;;
24801;SDS011;12898;50.520;12.152;2023-01-28T04:28:21;14.67;;;8.17;;
24801;SDS011;12898;50.520;12.152;2023-01-28T04:30:47;15.30;;;8.37;;
24801;SDS011;12898;50.520;12.152;2023-01-28T04:33:13;15.40;;;8.47;;
24801;SDS011;12898;50.520;12.152;2023-01-28T04:35:39;15.13;;;7.50;;
24801;SDS011;12898;50.520;12.152;2023-01-28T04:38:05;15.80;;;7.77;;
24801;SDS011;12898;50.520;12.152;2023-01-28T04:40:30;16.10;;;8.50;;
24801;SDS011;12898;50.520;12.152;2023-01-28T04:42:56;15.80;;;7.70;;
24801;SDS011;12898;50.520;12.152;2023-01-28T04:45:22;15.53;;;8.17;;
24801;SDS011;12898;50.520;12.152;2023-01-28T04:47:48;15.03;;;8.07;;
24801;SDS011;12898;50.520;12.152;2023-01-28T04:50:14;17.60;;;8.00;;
24801;SDS011;12898;50.520;12.152;2023-01-28T04:52:40;14.93;;;8.20;;
24801;SDS011;12898;50.520;12.152;2023-01-28T04:55:07;15.13;;;8.27;;
24801;SDS011;12898;50.520;12.152;2023-01-28T04:57:33;15.30;;;7.77;;
24801;SDS011;12898;50.520;12.152;2023-01-28T04:59:59;16.73;;;7.77;;
24801;SDS011;12898;50.520;12.152;2023-01-28T05:02:25;15.53;;;8.13;;
24801;SDS011;12898;50.520;12.152;2023-01-28T05:04:51;13.87;;;7.70;;
24801;SDS011;12898;50.520;12.152;2023-01-28T05:07:16;16.23;;;8.17;;
24801;SDS011;12898;50.520;12.152;2023-01-28T05:09:42;15.63;;;8.00;;
24801;SDS011;12898;50.520;12.152;2023-01-28T05:12:07;17.23;;;8.73;;
24801;SDS011;12898;50.520;12.152;2023-01-28T05:14:33;17.80;;;8.83;;
24801;SDS011;12898;50.520;12.152;2023-01-28T05:16:59;19.00;;;8.97;;
24801;SDS011;12898;50.520;12.152;2023-01-28T05:19:24;16.13;;;8.50;;
24801;SDS011;12898;50.520;12.152;2023-01-28T05:21:50;15.37;;;7.80;;
24801;SDS011;12898;50.520;12.152;2023-01-28T05:24:16;16.37;;;7.63;;
24801;SDS011;12898;50.520;12.152;2023-01-28T05:26:41;15.30;;;7.33;;
24801;SDS011;12898;50.520;12.152;2023-01-28T05:29:07;15.97;;;7.93;;
24801;SDS011;12898;50.520;12.152;2023-01-28T05:31:33;14.30;;;7.70;;
24801;SDS011;12898;50.520;12.152;2023-01-28T05:33:59;15.83;;;8.13;;
24801;SDS011;12898;50.520;12.152;2023-01-28T05:36:25;16.07;;;8.10;;
24801;SDS011;12898;50.520;12.152;2023-01-28T05:38:50;14.23;;;7.83;;
24801;SDS011;12898;50.520;12.152;2023-01-28T05:41:16;16.27;;;7.83;;
24801;SDS011;12898;50.520;12.152;2023-01-28T05:43:42;17.10;;;8.13;;
24801;SDS011;12898;50.520;12.152;2023-01-28T05:46:07;16.37;;;8.37;;
24801;SDS011;12898;50.520;12.152;2023-01-28T05:48:33;13.13;;;6.60;;
24801;SDS011;12898;50.520;12.152;2023-01-28T05:50:59;17.83;;;7.60;;
24801;SDS011;12898;50.520;12.152;2023-01-28T05:53:24;16.13;;;7.80;;
24801;SDS011;12898;50.520;12.152;2023-01-28T05:55:51;14.17;;;7.27;;
24801;SDS011;12898;50.520;12.152;2023-01-28T05:58:17;14.13;;;7.30;;
24801;SDS011;12898;50.520;12.152;2023-01-28T06:00:44;15.10;;;6.87;;
24801;SDS011;12898;50.520;12.152;2023-01-28T06:03:10;13.27;;;6.80;;
24801;SDS011;12898;50.520;12.152;2023-01-28T06:05:36;12.10;;;6.70;;
24801;SDS011;12898;50.520;12.152;2023-01-28T06:08:02;14.17;;;7.40;;
24801;SDS011;12898;50.520;12.152;2023-01-28T06:10:28;13.30;;;6.73;;
24801;SDS011;12898;50.520;12.152;2023-01-28T06:12:54;12.73;;;5.93;;
24801;SDS011;12898;50.520;12.152;2023-01-28T06:15:20;11.97;;;5.97;;
24801;SDS011;12898;50.520;12.152;2023-01-28T06:17:45;14.03;;;6.00;;
24801;SDS011;12898;50.520;12.152;2023-01-28T06:20:11;11.67;;;5.67;;
24801;SDS011;12898;50.520;12.152;2023-01-28T06:22:37;10.07;;;5.30;;
24801;SDS011;12898;50.520;12.152;2023-01-28T06:25:02;10.20;;;5.67;;
24801;SDS011;12898;50.520;12.152;2023-01-28T06:27:29;13.83;;;5.00;;
24801;SDS011;12898;50.520;12.152;2023-01-28T06:29:54;14.10;;;5.47;;
24801;SDS011;12898;50.520;12.152;2023-01-28T06:32:20;12.40;;;5.70;;
24801;SDS011;12898;50.520;12.152;2023-01-28T06:34:46;13.70;;;5.47;;
24801;SDS011;12898;50.520;12.152;2023-01-28T06:37:12;11.47;;;5.87;;
24801;SDS011;12898;50.520;12.152;2023-01-28T06:39:38;12.10;;;5.30;;
24801;SDS011;12898;50.520;12.152;2023-01-28T06:42:04;10.10;;;5.30;;
24801;SDS011;12898;50.520;12.152;2023-01-28T06:44:30;11.13;;;5.30;;
24801;SDS011;12898;50.520;12.152;2023-01-28T06:46:56;9.50;;;4.63;;
24801;SDS011;12898;50.520;12.152;2023-01-28T06:49:21;9.73;;;5.13;;
24801;SDS011;12898;50.520;12.152;2023-01-28T06:51:47;12.37;;;4.80;;
24801;SDS011;12898;50.520;12.152;2023-01-28T06:54:13;11.00;;;4.60;;
24801;SDS011;12898;50.520;12.152;2023-01-28T06:56:39;15.17;;;5.30;;
24801;SDS011;12898;50.520;12.152;2023-01-28T06:59:05;10.73;;;4.83;;
24801;SDS011;12898;50.520;12.152;2023-01-28T07:01:32;10.87;;;5.63;;
24801;SDS011;12898;50.520;12.152;2023-01-28T07:03:58;11.80;;;5.80;;
24801;SDS011;12898;50.520;12.152;2023-01-28T07:06:23;14.13;;;6.00;;
24801;SDS011;12898;50.520;12.152;2023-01-28T07:08:49;9.87;;;5.30;;
24801;SDS011;12898;50.520;12.152;2023-01-28T07:11:15;8.90;;;5.13;;
24801;SDS011;12898;50.520;12.152;2023-01-28T07:13:41;11.20;;;5.63;;
24801;SDS011;12898;50.520;12.152;2023-01-28T07:16:07;13.13;;;5.90;;
24801;SDS011;12898;50.520;12.152;2023-01-28T07:18:33;11.70;;;5.57;;
24801;SDS011;12898;50.520;12.152;2023-01-28T07:20:59;15.03;;;7.13;;
24801;SDS011;12898;50.520;12.152;2023-01-28T07:23:25;13.63;;;6.27;;
24801;SDS011;12898;50.520;12.152;2023-01-28T07:25:51;9.90;;;4.63;;
24801;SDS011;12898;50.520;12.152;2023-01-28T07:28:16;9.57;;;5.03;;
24801;SDS011;12898;50.520;12.152;2023-01-28T07:30:48;9.67;;;4.63;;
24801;SDS011;12898;50.520;12.152;2023-01-28T07:33:15;8.90;;;4.33;;
24801;SDS011;12898;50.520;12.152;2023-01-28T07:35:41;9.30;;;4.60;;
24801;SDS011;12898;50.520;12.152;2023-01-28T07:38:07;11.33;;;4.67;;
24801;SDS011;12898;50.520;12.152;2023-01-28T07:40:33;9.43;;;4.43;;
24801;SDS011;12898;50.520;12.152;2023-01-28T07:42:59;9.47;;;4.47;;
24801;SDS011;12898;50.520;12.152;2023-01-28T07:45:25;10.27;;;4.20;;
24801;SDS011;12898;50.520;12.152;2023-01-28T07:47:55;8.07;;;3.80;;
24801;SDS011;12898;50.520;12.152;2023-01-28T07:50:23;9.43;;;4.00;;
24801;SDS011;12898;50.520;12.152;2023-01-28T07:52:50;9.07;;;3.80;;
24801;SDS011;12898;50.520;12.152;2023-01-28T07:55:16;10.83;;;3.80;;
24801;SDS011;12898;50.520;12.152;2023-01-28T08:00:17;7.63;;;3.70;;
24801;SDS011;12898;50.520;12.152;2023-01-28T08:02:44;8.97;;;4.07;;
24801;SDS011;12898;50.520;12.152;2023-01-28T08:05:13;9.23;;;3.73;;
24801;SDS011;12898;50.520;12.152;2023-01-28T08:07:43;7.10;;;3.67;;
24801;SDS011;12898;50.520;12.152;2023-01-28T08:10:10;8.07;;;3.90;;
24801;SDS011;12898;50.520;12.152;2023-01-28T08:12:36;13.37;;;4.20;;
24801;SDS011;12898;50.520;12.152;2023-01-28T08:15:03;9.27;;;4.10;;
24801;SDS011;12898;50.520;12.152;2023-01-28T08:17:30;7.93;;;3.70;;
24801;SDS011;12898;50.520;12.152;2023-01-28T08:19:56;9.40;;;4.40;;
24801;SDS011;12898;50.520;12.152;2023-01-28T08:22:25;9.73;;;3.77;;
24801;SDS011;12898;50.520;12.152;2023-01-28T08:24:51;11.00;;;4.20;;
24801;SDS011;12898;50.520;12.152;2023-01-28T08:27:17;7.90;;;4.30;;
24801;SDS011;12898;50.520;12.152;2023-01-28T08:29:43;10.17;;;4.20;;
24801;SDS011;12898;50.520;12.152;2023-01-28T08:32:09;11.30;;;4.33;;
24801;SDS011;12898;50.520;12.152;2023-01-28T08:34:35;9.53;;;4.20;;
24801;SDS011;12898;50.520;12.152;2023-01-28T08:37:01;11.37;;;4.03;;
24801;SDS011;12898;50.520;12.152;2023-01-28T08:39:26;8.20;;;4.10;;
24801;SDS011;12898;50.520;12.152;2023-01-28T08:41:52;12.50;;;4.73;;
24801;SDS011;12898;50.520;12.152;2023-01-28T08:44:18;9.23;;;4.27;;
24801;SDS011;12898;50.520;12.152;2023-01-28T08:46:43;8.70;;;4.03;;
24801;SDS011;12898;50.520;12.152;2023-01-28T08:49:09;10.00;;;4.23;;
24801;SDS011;12898;50.520;12.152;2023-01-28T08:51:35;10.70;;;4.27;;
24801;SDS011;12898;50.520;12.152;2023-01-28T08:54:00;10.63;;;4.33;;
24801;SDS011;12898;50.520;12.152;2023-01-28T08:56:26;9.67;;;3.73;;
24801;SDS011;12898;50.520;12.152;2023-01-28T08:58:52;8.83;;;4.50;;
24801;SDS011;12898;50.520;12.152;2023-01-28T09:01:18;9.30;;;4.00;;
24801;SDS011;12898;50.520;12.152;2023-01-28T09:03:43;8.50;;;4.20;;
24801;SDS011;12898;50.520;12.152;2023-01-28T09:06:09;12.27;;;5.53;;
24801;SDS011;12898;50.520;12.152;2023-01-28T09:08:35;15.97;;;6.00;;
24801;SDS011;12898;50.520;12.152;2023-01-28T09:11:00;23.73;;;13.10;;
24801;SDS011;12898;50.520;12.152;2023-01-28T09:13:26;11.57;;;5.13;;
24801;SDS011;12898;50.520;12.152;2023-01-28T09:15:52;12.80;;;5.43;;
24801;SDS011;12898;50.520;12.152;2023-01-28T09:18:18;11.50;;;5.73;;
24801;SDS011;12898;50.520;12.152;2023-01-28T09:20:44;13.43;;;6.90;;
24801;SDS011;12898;50.520;12.152;2023-01-28T09:23:10;12.83;;;6.20;;
24801;SDS011;12898;50.520;12.152;2023-01-28T09:25:36;13.47;;;5.10;;
24801;SDS011;12898;50.520;12.152;2023-01-28T09:28:02;13.07;;;5.43;;
24801;SDS011;12898;50.520;12.152;2023-01-28T09:30:29;9.43;;;5.50;;
24801;SDS011;12898;50.520;12.152;2023-01-28T09:32:55;10.50;;;5.10;;
24801;SDS011;12898;50.520;12.152;2023-01-28T09:35:24;11.87;;;5.50;;
24801;SDS011;12898;50.520;12.152;2023-01-28T09:37:50;10.43;;;4.80;;
24801;SDS011;12898;50.520;12.152;2023-01-28T09:40:20;9.60;;;4.70;;
24801;SDS011;12898;50.520;12.152;2023-01-28T09:45:51;11.17;;;5.10;;
24801;SDS011;12898;50.520;12.152;2023-01-28T09:48:21;12.13;;;5.20;;
24801;SDS011;12898;50.520;12.152;2023-01-28T09:50:56;24.00;;;13.00;;
24801;SDS011;12898;50.520;12.152;2023-01-28T09:53:34;11.40;;;6.03;;
24801;SDS011;12898;50.520;12.152;2023-01-28T09:56:08;51.70;;;28.30;;
24801;SDS011;12898;50.520;12.152;2023-01-28T09:58:41;21.70;;;10.47;;
24801;SDS011;12898;50.520;12.152;2023-01-28T10:04:32;31.23;;;16.60;;
24801;SDS011;12898;50.520;12.152;2023-01-28T10:07:38;15.67;;;7.73;;
24801;SDS011;12898;50.520;12.152;2023-01-28T10:10:59;12.40;;;5.53;;
24801;SDS011;12898;50.520;12.152;2023-01-28T10:16:17;9.53;;;5.03;;
24801;SDS011;12898;50.520;12.152;2023-01-28T10:19:01;10.70;;;5.60;;
24801;SDS011;12898;50.520;12.152;2023-01-28T10:21:53;15.23;;;6.37;;
24801;SDS011;12898;50.520;12.152;2023-01-28T10:24:25;10.67;;;5.50;;
24801;SDS011;12898;50.520;12.152;2023-01-28T10:26:59;11.07;;;5.63;;
24801;SDS011;12898;50.520;12.152;2023-01-28T10:29:26;11.93;;;5.60;;
24801;SDS011;12898;50.520;12.152;2023-01-28T10:34:43;9.50;;;5.30;;
24801;SDS011;12898;50.520;12.152;2023-01-28T10:37:10;12.93;;;6.00;;
24801;SDS011;12898;50.520;12.152;2023-01-28T10:39:39;12.27;;;5.80;;
24801;SDS011;12898;50.520;12.152;2023-01-28T10:42:13;10.83;;;5.50;;
24801;SDS011;12898;50.520;12.152;2023-01-28T10:45:01;10.23;;;5.57;;
24801;SDS011;12898;50.520;12.152;2023-01-28T10:47:38;9.90;;;5.73;;
24801;SDS011;12898;50.520;12.152;2023-01-28T10:50:16;14.00;;;6.70;;
24801;SDS011;12898;50.520;12.152;2023-01-28T10:53:00;12.67;;;6.20;;
24801;SDS011;12898;50.520;12.152;2023-01-28T10:55:29;13.90;;;6.20;;
24801;SDS011;12898;50.520;12.152;2023-01-28T10:58:21;11.33;;;6.30;;
24801;SDS011;12898;50.520;12.152;2023-01-28T11:00:56;13.33;;;7.37;;
24801;SDS011;12898;50.520;12.152;2023-01-28T11:03:24;11.80;;;6.60;;
24801;SDS011;12898;50.520;12.152;2023-01-28T11:05:52;12.37;;;6.20;;
24801;SDS011;12898;50.520;12.152;2023-01-28T11:08:19;12.10;;;5.40;;
24801;SDS011;12898;50.520;12.152;2023-01-28T11:10:48;10.70;;;5.67;;
24801;SDS011;12898;50.520;12.152;2023-01-28T11:13:19;10.63;;;5.73;;
24801;SDS011;12898;50.520;12.152;2023-01-28T11:15:46;9.47;;;5.00;;
24801;SDS011;12898;50.520;12.152;2023-01-28T11:18:20;11.87;;;5.57;;
24801;SDS011;12898;50.520;12.152;2023-01-28T11:20:59;15.10;;;5.37;;
24801;SDS011;12898;50.520;12.152;2023-01-28T11:23:30;12.90;;;5.53;;
24801;SDS011;12898;50.520;12.152;2023-01-28T11:26:13;10.07;;;5.33;;
24801;SDS011;12898;50.520;12.152;2023-01-28T11:28:42;11.47;;;6.13;;
24801;SDS011;12898;50.520;12.152;2023-01-28T11:31:09;13.20;;;6.73;;
24801;SDS011;12898;50.520;12.152;2023-01-28T11:33:43;11.00;;;6.20;;
24801;SDS011;12898;50.520;12.152;2023-01-28T11:36:15;13.90;;;6.20;;
24801;SDS011;12898;50.520;12.152;2023-01-28T11:38:57;10.93;;;5.87;;
24801;SDS011;12898;50.520;12.152;2023-01-28T11:41:35;11.77;;;5.27;;
24801;SDS011;12898;50.520;12.152;2023-01-28T11:44:15;10.07;;;5.13;;
24801;SDS011;12898;50.520;12.152;2023-01-28T11:46:52;10.23;;;4.60;;
24801;SDS011;12898;50.520;12.152;2023-01-28T11:49:46;8.97;;;4.77;;
24801;SDS011;12898;50.520;12.152;2023-01-28T11:52:24;9.40;;;4.87;;
24801;SDS011;12898;50.520;12.152;2023-01-28T12:08:31;9.87;;;4.30;;
24801;SDS011;12898;50.520;12.152;2023-01-28T12:23:02;6.33;;;3.83;;
24801;SDS011;12898;50.520;12.152;2023-01-28T12:25:54;8.00;;;4.20;;
24801;SDS011;12898;50.520;12.152;2023-01-28T12:28:56;11.83;;;4.43;;
24801;SDS011;12898;50.520;12.152;2023-01-28T12:32:02;7.43;;;4.00;;
24801;SDS011;12898;50.520;12.152;2023-01-28T12:41:01;10.40;;;4.90;;
24801;SDS011;12898;50.520;12.152;2023-01-28T12:43:50;10.20;;;4.47;;
24801;SDS011;12898;50.520;12.152;2023-01-28T12:49:21;8.43;;;4.40;;
24801;SDS011;12898;50.520;12.152;2023-01-28T12:52:08;9.37;;;4.30;;
24801;SDS011;12898;50.520;12.152;2023-01-28T12:55:00;7.13;;;3.90;;
24801;SDS011;12898;50.520;12.152;2023-01-28T12:57:29;8.53;;;4.03;;
24801;SDS011;12898;50.520;12.152;2023-01-28T13:00:02;10.40;;;5.00;;
24801;SDS011;12898;50.520;12.152;2023-01-28T13:02:46;8.30;;;4.13;;
24801;SDS011;12898;50.520;12.152;2023-01-28T13:05:21;13.60;;;6.30;;
24801;SDS011;12898;50.520;12.152;2023-01-28T13:07:59;9.40;;;4.17;;
24801;SDS011;12898;50.520;12.152;2023-01-28T13:10:47;8.17;;;4.07;;
24801;SDS011;12898;50.520;12.152;2023-01-28T13:13:15;6.47;;;3.83;;
24801;SDS011;12898;50.520;12.152;2023-01-28T13:15:44;9.33;;;4.17;;
24801;SDS011;12898;50.520;12.152;2023-01-28T13:18:26;7.17;;;4.00;;
24801;SDS011;12898;50.520;12.152;2023-01-28T13:21:15;8.20;;;4.30;;
24801;SDS011;12898;50.520;12.152;2023-01-28T13:26:27;8.80;;;4.20;;
24801;SDS011;12898;50.520;12.152;2023-01-28T13:29:29;8.93;;;4.17;;
24801;SDS011;12898;50.520;12.152;2023-01-28T13:32:01;7.87;;;3.80;;
24801;SDS011;12898;50.520;12.152;2023-01-28T13:35:06;9.50;;;4.27;;
24801;SDS011;12898;50.520;12.152;2023-01-28T13:37:52;7.57;;;4.10;;
24801;SDS011;12898;50.520;12.152;2023-01-28T13:40:22;10.00;;;4.03;;
24801;SDS011;12898;50.520;12.152;2023-01-28T13:43:02;9.00;;;4.10;;
24801;SDS011;12898;50.520;12.152;2023-01-28T13:46:10;7.33;;;3.77;;
24801;SDS011;12898;50.520;12.152;2023-01-28T13:48:52;6.40;;;3.63;;
24801;SDS011;12898;50.520;12.152;2023-01-28T13:53:54;12.53;;;5.70;;
24801;SDS011;12898;50.520;12.152;2023-01-28T13:56:26;13.00;;;5.53;;
24801;SDS011;12898;50.520;12.152;2023-01-28T14:16:59;10.60;;;4.87;;
24801;SDS011;12898;50.520;12.152;2023-01-28T14:19:40;8.07;;;4.20;;
24801;SDS011;12898;50.520;12.152;2023-01-28T14:22:09;9.53;;;5.23;;
24801;SDS011;12898;50.520;12.152;2023-01-28T14:24:42;8.40;;;4.63;;
24801;SDS011;12898;50.520;12.152;2023-01-28T14:32:50;7.43;;;4.17;;
24801;SDS011;12898;50.520;12.152;2023-01-28T14:35:19;6.80;;;4.23;;
24801;SDS011;12898;50.520;12.152;2023-01-28T14:37:53;9.57;;;4.40;;
24801;SDS011;12898;50.520;12.152;2023-01-28T14:40:21;8.13;;;4.40;;
24801;SDS011;12898;50.520;12.152;2023-01-28T14:42:48;8.10;;;4.07;;
24801;SDS011;12898;50.520;12.152;2023-01-28T14:48:17;14.03;;;4.00;;
24801;SDS011;12898;50.520;12.152;2023-01-28T14:50:56;9.90;;;4.10;;
24801;SDS011;12898;50.520;12.152;2023-01-28T14:53:54;11.07;;;4.40;;
24801;SDS011;12898;50.520;12.152;2023-01-28T14:56:53;5.50;;;3.53;;
24801;SDS011;12898;50.520;12.152;2023-01-28T14:59:57;6.57;;;3.53;;
24801;SDS011;12898;50.520;12.152;2023-01-28T15:02:24;7.23;;;3.70;;
24801;SDS011;12898;50.520;12.152;2023-01-28T15:04:53;7.43;;;4.33;;
24801;SDS011;12898;50.520;12.152;2023-01-28T15:07:28;8.53;;;4.00;;
24801;SDS011;12898;50.520;12.152;2023-01-28T15:10:00;10.90;;;3.80;;
24801;SDS011;12898;50.520;12.152;2023-01-28T15:12:40;7.80;;;3.83;;
24801;SDS011;12898;50.520;12.152;2023-01-28T15:15:28;9.57;;;4.23;;
24801;SDS011;12898;50.520;12.152;2023-01-28T15:18:01;9.00;;;3.97;;
24801;SDS011;12898;50.520;12.152;2023-01-28T15:20:34;8.40;;;4.20;;
24801;SDS011;12898;50.520;12.152;2023-01-28T15:23:00;10.27;;;4.33;;
24801;SDS011;12898;50.520;12.152;2023-01-28T15:25:30;8.80;;;4.47;;
24801;SDS011;12898;50.520;12.152;2023-01-28T15:27:57;7.50;;;4.17;;
24801;SDS011;12898;50.520;12.152;2023-01-28T15:30:26;8.83;;;4.13;;
24801;SDS011;12898;50.520;12.152;2023-01-28T15:33:05;9.07;;;4.20;;
24801;SDS011;12898;50.520;12.152;2023-01-28T15:35:54;7.70;;;4.23;;
24801;SDS011;12898;50.520;12.152;2023-01-28T15:38:21;9.20;;;4.00;;
24801;SDS011;12898;50.520;12.152;2023-01-28T15:40:57;9.53;;;4.87;;
24801;SDS011;12898;50.520;12.152;2023-01-28T15:43:26;8.07;;;4.10;;
24801;SDS011;12898;50.520;12.152;2023-01-28T15:45:55;9.30;;;4.23;;
24801;SDS011;12898;50.520;12.152;2023-01-28T15:48:24;11.90;;;6.10;;
24801;SDS011;12898;50.520;12.152;2023-01-28T15:51:02;9.27;;;4.60;;
24801;SDS011;12898;50.520;12.152;2023-01-28T15:53:49;7.23;;;4.20;;
24801;SDS011;12898;50.520;12.152;2023-01-28T15:56:25;9.70;;;4.17;;
24801;SDS011;12898;50.520;12.152;2023-01-28T15:58:53;7.60;;;4.33;;
24801;SDS011;12898;50.520;12.152;2023-01-28T16:01:20;9.13;;;4.37;;
24801;SDS011;12898;50.520;12.152;2023-01-28T16:03:58;8.17;;;4.40;;
24801;SDS011;12898;50.520;12.152;2023-01-28T16:06:33;8.20;;;3.87;;
24801;SDS011;12898;50.520;12.152;2023-01-28T16:09:44;7.80;;;4.20;;
24801;SDS011;12898;50.520;12.152;2023-01-28T16:11:52;9.23;;;4.63;;
24801;SDS011;12898;50.520;12.152;2023-01-28T16:14:26;11.80;;;5.70;;
24801;SDS011;12898;50.520;12.152;2023-01-28T16:16:55;15.33;;;7.53;;
24801;SDS011;12898;50.520;12.152;2023-01-28T16:19:32;15.97;;;8.30;;
24801;SDS011;12898;50.520;12.152;2023-01-28T16:22:03;10.00;;;5.20;;
24801;SDS011;12898;50.520;12.152;2023-01-28T16:24:31;9.13;;;4.67;;
24801;SDS011;12898;50.520;12.152;2023-01-28T16:27:05;9.10;;;4.33;;
24801;SDS011;12898;50.520;12.152;2023-01-28T16:29:46;13.77;;;4.40;;
24801;SDS011;12898;50.520;12.152;2023-01-28T16:34:55;11.00;;;4.87;;